sensor_id;sensor_type;location;lat;lon;timestamp;P1;durP1;ratioP1;P2;durP2;ratioP2
35456;SDS011;21575;51.538;-0.084;2022-08-19T00:00:24;2.58;;;1.52;;
35456;SDS011;21575;51.538;-0.084;2022-08-19T00:02:50;1.85;;;1.55;;
35456;SDS011;21575;51.538;-0.084;2022-08-19T00:05:17;2.95;;;1.48;;
35456;SDS011;21575;51.538;-0.084;2022-08-19T00:07:43;2.90;;;1.75;;
35456;SDS011;21575;51.538;-0.084;2022-08-19T00:10:11;2.60;;;1.90;;
35456;SDS011;21575;51.538;-0.084;2022-08-19T00:12:38;3.92;;;1.52;;
35456;SDS011;21575;51.538;-0.084;2022-08-19T00:15:04;2.45;;;1.30;;
35456;SDS011;21575;51.538;-0.084;2022-08-19T00:17:35;3.40;;;2.08;;
35456;SDS011;21575;51.538;-0.084;2022-08-19T00:20:01;2.63;;;1.73;;
35456;SDS011;21575;51.538;-0.084;2022-08-19T00:22:27;1.60;;;1.50;;
35456;SDS011;21575;51.538;-0.084;2022-08-19T00:24:53;1.50;;;1.33;;
35456;SDS011;21575;51.538;-0.084;2022-08-19T00:27:19;2.53;;;1.73;;
35456;SDS011;21575;51.538;-0.084;2022-08-19T00:29:44;3.13;;;2.42;;
35456;SDS011;21575;51.538;-0.084;2022-08-19T00:32:10;5.45;;;2.10;;
35456;SDS011;21575;51.538;-0.084;2022-08-19T00:34:37;2.47;;;2.25;;
35456;SDS011;21575;51.538;-0.084;2022-08-19T00:37:02;3.05;;;2.22;;
35456;SDS011;21575;51.538;-0.084;2022-08-19T00:39:28;3.42;;;2.72;;
35456;SDS011;21575;51.538;-0.084;2022-08-19T00:41:55;3.30;;;1.77;;
35456;SDS011;21575;51.538;-0.084;2022-08-19T00:44:23;3.42;;;1.77;;
35456;SDS011;21575;51.538;-0.084;2022-08-19T00:46:51;2.67;;;1.98;;
35456;SDS011;21575;51.538;-0.084;2022-08-19T00:49:19;2.70;;;2.50;;
35456;SDS011;21575;51.538;-0.084;2022-08-19T00:52:09;5.28;;;2.30;;
35456;SDS011;21575;51.538;-0.084;2022-08-19T00:54:39;2.17;;;2.00;;
35456;SDS011;21575;51.538;-0.084;2022-08-19T00:57:07;3.78;;;2.35;;
35456;SDS011;21575;51.538;-0.084;2022-08-19T00:59:40;2.90;;;2.10;;
35456;SDS011;21575;51.538;-0.084;2022-08-19T01:02:08;3.67;;;2.40;;
35456;SDS011;21575;51.538;-0.084;2022-08-19T01:04:33;4.43;;;2.00;;
35456;SDS011;21575;51.538;-0.084;2022-08-19T01:06:59;3.60;;;2.10;;
35456;SDS011;21575;51.538;-0.084;2022-08-19T01:09:26;4.43;;;2.72;;
35456;SDS011;21575;51.538;-0.084;2022-08-19T01:11:52;2.97;;;2.10;;
35456;SDS011;21575;51.538;-0.084;2022-08-19T01:14:18;5.13;;;2.63;;
35456;SDS011;21575;51.538;-0.084;2022-08-19T01:16:44;2.45;;;2.25;;
35456;SDS011;21575;51.538;-0.084;2022-08-19T01:22:01;2.90;;;2.35;;
35456;SDS011;21575;51.538;-0.084;2022-08-19T01:24:31;3.65;;;2.20;;
35456;SDS011;21575;51.538;-0.084;2022-08-19T01:26:57;3.08;;;2.42;;
35456;SDS011;21575;51.538;-0.084;2022-08-19T01:29:23;3.17;;;2.88;;
35456;SDS011;21575;51.538;-0.084;2022-08-19T01:31:48;1.90;;;1.80;;
35456;SDS011;21575;51.538;-0.084;2022-08-19T01:34:17;5.15;;;2.70;;
35456;SDS011;21575;51.538;-0.084;2022-08-19T01:36:44;2.55;;;2.25;;
35456;SDS011;21575;51.538;-0.084;2022-08-19T01:39:13;2.38;;;1.88;;
35456;SDS011;21575;51.538;-0.084;2022-08-19T01:41:42;2.47;;;2.28;;
35456;SDS011;21575;51.538;-0.084;2022-08-19T01:44:08;4.05;;;2.30;;
35456;SDS011;21575;51.538;-0.084;2022-08-19T01:46:34;2.75;;;2.03;;
35456;SDS011;21575;51.538;-0.084;2022-08-19T01:49:01;4.45;;;3.00;;
35456;SDS011;21575;51.538;-0.084;2022-08-19T01:51:28;3.35;;;2.50;;
35456;SDS011;21575;51.538;-0.084;2022-08-19T01:53:55;3.75;;;2.83;;
35456;SDS011;21575;51.538;-0.084;2022-08-19T01:56:21;3.80;;;2.45;;
35456;SDS011;21575;51.538;-0.084;2022-08-19T01:58:51;3.90;;;2.20;;
35456;SDS011;21575;51.538;-0.084;2022-08-19T02:01:25;4.03;;;2.55;;
35456;SDS011;21575;51.538;-0.084;2022-08-19T02:03:50;3.88;;;2.60;;
35456;SDS011;21575;51.538;-0.084;2022-08-19T02:06:18;4.38;;;2.83;;
35456;SDS011;21575;51.538;-0.084;2022-08-19T02:08:44;4.72;;;2.40;;
35456;SDS011;21575;51.538;-0.084;2022-08-19T02:11:17;3.50;;;2.92;;
35456;SDS011;21575;51.538;-0.084;2022-08-19T02:13:54;5.80;;;4.03;;
35456;SDS011;21575;51.538;-0.084;2022-08-19T02:16:20;4.57;;;2.50;;
35456;SDS011;21575;51.538;-0.084;2022-08-19T02:18:47;4.05;;;3.25;;
35456;SDS011;21575;51.538;-0.084;2022-08-19T02:21:19;2.80;;;2.20;;
35456;SDS011;21575;51.538;-0.084;2022-08-19T02:23:46;4.32;;;2.60;;
35456;SDS011;21575;51.538;-0.084;2022-08-19T02:26:12;2.58;;;2.30;;
35456;SDS011;21575;51.538;-0.084;2022-08-19T02:28:38;7.93;;;3.53;;
35456;SDS011;21575;51.538;-0.084;2022-08-19T02:31:09;5.15;;;2.88;;
35456;SDS011;21575;51.538;-0.084;2022-08-19T02:33:36;4.30;;;2.53;;
35456;SDS011;21575;51.538;-0.084;2022-08-19T02:36:05;4.38;;;2.75;;
35456;SDS011;21575;51.538;-0.084;2022-08-19T02:38:32;3.80;;;2.30;;
35456;SDS011;21575;51.538;-0.084;2022-08-19T02:41:02;3.72;;;2.50;;
35456;SDS011;21575;51.538;-0.084;2022-08-19T02:43:32;4.57;;;2.80;;
35456;SDS011;21575;51.538;-0.084;2022-08-19T02:46:02;3.85;;;2.70;;
35456;SDS011;21575;51.538;-0.084;2022-08-19T02:48:38;4.13;;;2.60;;
35456;SDS011;21575;51.538;-0.084;2022-08-19T02:51:03;3.63;;;2.53;;
35456;SDS011;21575;51.538;-0.084;2022-08-19T02:53:30;4.35;;;2.50;;
35456;SDS011;21575;51.538;-0.084;2022-08-19T02:55:56;3.75;;;2.75;;
35456;SDS011;21575;51.538;-0.084;2022-08-19T02:58:22;4.40;;;2.83;;
35456;SDS011;21575;51.538;-0.084;2022-08-19T03:00:49;3.28;;;2.28;;
35456;SDS011;21575;51.538;-0.084;2022-08-19T03:03:20;4.10;;;2.90;;
35456;SDS011;21575;51.538;-0.084;2022-08-19T03:05:46;5.05;;;2.40;;
35456;SDS011;21575;51.538;-0.084;2022-08-19T03:08:12;6.15;;;2.70;;
35456;SDS011;21575;51.538;-0.084;2022-08-19T03:10:40;4.15;;;2.33;;
35456;SDS011;21575;51.538;-0.084;2022-08-19T03:13:08;4.22;;;2.53;;
35456;SDS011;21575;51.538;-0.084;2022-08-19T03:15:38;4.78;;;2.25;;
35456;SDS011;21575;51.538;-0.084;2022-08-19T03:18:05;2.75;;;1.98;;
35456;SDS011;21575;51.538;-0.084;2022-08-19T03:20:30;5.10;;;2.35;;
35456;SDS011;21575;51.538;-0.084;2022-08-19T03:22:56;3.97;;;2.30;;
35456;SDS011;21575;51.538;-0.084;2022-08-19T03:25:22;3.85;;;2.50;;
35456;SDS011;21575;51.538;-0.084;2022-08-19T03:27:48;3.25;;;2.10;;
35456;SDS011;21575;51.538;-0.084;2022-08-19T03:30:13;5.35;;;2.33;;
35456;SDS011;21575;51.538;-0.084;2022-08-19T03:32:39;2.33;;;2.08;;
35456;SDS011;21575;51.538;-0.084;2022-08-19T03:35:05;4.95;;;2.40;;
35456;SDS011;21575;51.538;-0.084;2022-08-19T03:37:31;3.20;;;1.88;;
35456;SDS011;21575;51.538;-0.084;2022-08-19T03:39:57;2.63;;;1.92;;
35456;SDS011;21575;51.538;-0.084;2022-08-19T03:42:23;4.35;;;2.40;;
35456;SDS011;21575;51.538;-0.084;2022-08-19T03:44:49;4.30;;;2.20;;
35456;SDS011;21575;51.538;-0.084;2022-08-19T03:47:15;2.85;;;1.83;;
35456;SDS011;21575;51.538;-0.084;2022-08-19T03:49:41;3.20;;;1.83;;
35456;SDS011;21575;51.538;-0.084;2022-08-19T03:52:08;4.35;;;2.63;;
35456;SDS011;21575;51.538;-0.084;2022-08-19T03:54:34;3.03;;;1.98;;
35456;SDS011;21575;51.538;-0.084;2022-08-19T03:57:00;3.60;;;2.50;;
35456;SDS011;21575;51.538;-0.084;2022-08-19T03:59:27;3.20;;;1.52;;
35456;SDS011;21575;51.538;-0.084;2022-08-19T04:01:56;2.00;;;1.73;;
35456;SDS011;21575;51.538;-0.084;2022-08-19T04:04:24;1.92;;;1.30;;
35456;SDS011;21575;51.538;-0.084;2022-08-19T04:06:51;2.63;;;1.20;;
35456;SDS011;21575;51.538;-0.084;2022-08-19T04:09:18;3.20;;;1.60;;
35456;SDS011;21575;51.538;-0.084;2022-08-19T04:11:51;2.53;;;1.10;;
35456;SDS011;21575;51.538;-0.084;2022-08-19T04:14:23;2.00;;;1.17;;
35456;SDS011;21575;51.538;-0.084;2022-08-19T04:16:51;1.98;;;1.73;;
35456;SDS011;21575;51.538;-0.084;2022-08-19T04:19:18;1.23;;;1.13;;
35456;SDS011;21575;51.538;-0.084;2022-08-19T04:21:45;2.22;;;1.30;;
35456;SDS011;21575;51.538;-0.084;2022-08-19T04:24:13;2.13;;;1.20;;
35456;SDS011;21575;51.538;-0.084;2022-08-19T04:26:40;4.10;;;1.70;;
35456;SDS011;21575;51.538;-0.084;2022-08-19T04:29:10;2.35;;;1.30;;
35456;SDS011;21575;51.538;-0.084;2022-08-19T04:31:38;2.53;;;1.02;;
35456;SDS011;21575;51.538;-0.084;2022-08-19T04:34:08;2.25;;;1.33;;
35456;SDS011;21575;51.538;-0.084;2022-08-19T04:36:36;3.10;;;1.33;;
35456;SDS011;21575;51.538;-0.084;2022-08-19T04:39:04;2.17;;;1.20;;
35456;SDS011;21575;51.538;-0.084;2022-08-19T04:41:32;1.20;;;1.10;;
35456;SDS011;21575;51.538;-0.084;2022-08-19T04:44:17;2.95;;;1.30;;
35456;SDS011;21575;51.538;-0.084;2022-08-19T04:46:43;1.52;;;1.38;;
35456;SDS011;21575;51.538;-0.084;2022-08-19T04:49:09;4.10;;;1.65;;
35456;SDS011;21575;51.538;-0.084;2022-08-19T04:51:36;5.22;;;2.13;;
35456;SDS011;21575;51.538;-0.084;2022-08-19T04:54:05;1.90;;;1.60;;
35456;SDS011;21575;51.538;-0.084;2022-08-19T04:56:30;3.67;;;2.30;;
35456;SDS011;21575;51.538;-0.084;2022-08-19T04:58:56;2.65;;;1.83;;
35456;SDS011;21575;51.538;-0.084;2022-08-19T05:01:24;2.72;;;2.08;;
35456;SDS011;21575;51.538;-0.084;2022-08-19T05:03:53;3.13;;;1.40;;
35456;SDS011;21575;51.538;-0.084;2022-08-19T05:06:19;2.95;;;1.50;;
35456;SDS011;21575;51.538;-0.084;2022-08-19T05:08:46;1.40;;;1.25;;
35456;SDS011;21575;51.538;-0.084;2022-08-19T05:11:17;2.70;;;1.50;;
35456;SDS011;21575;51.538;-0.084;2022-08-19T05:13:45;1.58;;;1.33;;
35456;SDS011;21575;51.538;-0.084;2022-08-19T05:16:13;2.22;;;1.25;;
35456;SDS011;21575;51.538;-0.084;2022-08-19T05:18:40;2.30;;;0.80;;
35456;SDS011;21575;51.538;-0.084;2022-08-19T05:21:25;2.20;;;1.13;;
35456;SDS011;21575;51.538;-0.084;2022-08-19T05:24:10;0.85;;;0.85;;
35456;SDS011;21575;51.538;-0.084;2022-08-19T05:26:38;2.33;;;1.48;;
35456;SDS011;21575;51.538;-0.084;2022-08-19T05:29:05;1.17;;;0.98;;
35456;SDS011;21575;51.538;-0.084;2022-08-19T05:31:32;1.02;;;0.93;;
35456;SDS011;21575;51.538;-0.084;2022-08-19T05:33:58;0.63;;;0.63;;
35456;SDS011;21575;51.538;-0.084;2022-08-19T05:36:28;0.95;;;0.50;;
35456;SDS011;21575;51.538;-0.084;2022-08-19T05:38:59;1.10;;;0.40;;
35456;SDS011;21575;51.538;-0.084;2022-08-19T05:41:25;0.98;;;0.75;;
35456;SDS011;21575;51.538;-0.084;2022-08-19T05:43:56;1.67;;;0.70;;
35456;SDS011;21575;51.538;-0.084;2022-08-19T05:46:22;1.95;;;1.33;;
35456;SDS011;21575;51.538;-0.084;2022-08-19T05:48:48;0.70;;;0.70;;
35456;SDS011;21575;51.538;-0.084;2022-08-19T05:51:14;1.20;;;0.60;;
35456;SDS011;21575;51.538;-0.084;2022-08-19T05:53:41;3.22;;;0.98;;
35456;SDS011;21575;51.538;-0.084;2022-08-19T05:56:09;0.73;;;0.73;;
35456;SDS011;21575;51.538;-0.084;2022-08-19T06:01:14;1.05;;;1.05;;
35456;SDS011;21575;51.538;-0.084;2022-08-19T06:03:41;1.55;;;0.73;;
35456;SDS011;21575;51.538;-0.084;2022-08-19T06:06:08;0.63;;;0.63;;
35456;SDS011;21575;51.538;-0.084;2022-08-19T06:08:35;0.65;;;0.60;;
35456;SDS011;21575;51.538;-0.084;2022-08-19T06:14:07;0.73;;;0.70;;
35456;SDS011;21575;51.538;-0.084;2022-08-19T06:16:39;1.27;;;0.60;;
35456;SDS011;21575;51.538;-0.084;2022-08-19T06:19:07;1.67;;;0.50;;
35456;SDS011;21575;51.538;-0.084;2022-08-19T06:21:36;1.10;;;0.47;;
35456;SDS011;21575;51.538;-0.084;2022-08-19T06:24:07;0.70;;;0.60;;
35456;SDS011;21575;51.538;-0.084;2022-08-19T06:26:36;0.50;;;0.50;;
35456;SDS011;21575;51.538;-0.084;2022-08-19T06:29:06;2.47;;;0.50;;
35456;SDS011;21575;51.538;-0.084;2022-08-19T06:31:34;2.35;;;0.38;;
35456;SDS011;21575;51.538;-0.084;2022-08-19T06:34:01;1.30;;;1.08;;
35456;SDS011;21575;51.538;-0.084;2022-08-19T06:36:31;0.82;;;0.30;;
35456;SDS011;21575;51.538;-0.084;2022-08-19T06:39:05;0.65;;;0.30;;
35456;SDS011;21575;51.538;-0.084;2022-08-19T06:41:37;1.15;;;0.28;;
35456;SDS011;21575;51.538;-0.084;2022-08-19T06:44:04;0.45;;;0.30;;
35456;SDS011;21575;51.538;-0.084;2022-08-19T06:46:30;0.50;;;0.50;;
35456;SDS011;21575;51.538;-0.084;2022-08-19T06:48:56;1.30;;;0.38;;
35456;SDS011;21575;51.538;-0.084;2022-08-19T06:51:22;0.25;;;0.25;;
35456;SDS011;21575;51.538;-0.084;2022-08-19T06:53:49;1.20;;;0.32;;
35456;SDS011;21575;51.538;-0.084;2022-08-19T06:56:17;1.08;;;0.52;;
35456;SDS011;21575;51.538;-0.084;2022-08-19T06:58:49;0.45;;;0.35;;
35456;SDS011;21575;51.538;-0.084;2022-08-19T07:01:18;1.80;;;0.35;;
35456;SDS011;21575;51.538;-0.084;2022-08-19T07:03:44;0.88;;;0.50;;
35456;SDS011;21575;51.538;-0.084;2022-08-19T07:06:12;1.30;;;0.50;;
35456;SDS011;21575;51.538;-0.084;2022-08-19T07:08:40;0.57;;;0.30;;
35456;SDS011;21575;51.538;-0.084;2022-08-19T07:11:08;1.23;;;0.30;;
35456;SDS011;21575;51.538;-0.084;2022-08-19T07:13:36;0.95;;;0.20;;
35456;SDS011;21575;51.538;-0.084;2022-08-19T07:16:05;0.68;;;0.40;;
35456;SDS011;21575;51.538;-0.084;2022-08-19T07:18:32;1.30;;;0.50;;
35456;SDS011;21575;51.538;-0.084;2022-08-19T07:21:05;0.50;;;0.30;;
35456;SDS011;21575;51.538;-0.084;2022-08-19T07:23:39;1.63;;;0.47;;
35456;SDS011;21575;51.538;-0.084;2022-08-19T07:26:06;2.60;;;0.43;;
35456;SDS011;21575;51.538;-0.084;2022-08-19T07:28:44;1.15;;;0.30;;
35456;SDS011;21575;51.538;-0.084;2022-08-19T07:31:11;2.22;;;0.55;;
35456;SDS011;21575;51.538;-0.084;2022-08-19T07:33:45;1.10;;;0.50;;
35456;SDS011;21575;51.538;-0.084;2022-08-19T07:36:12;1.00;;;0.30;;
35456;SDS011;21575;51.538;-0.084;2022-08-19T07:38:41;0.32;;;0.30;;
35456;SDS011;21575;51.538;-0.084;2022-08-19T07:41:12;0.47;;;0.30;;
35456;SDS011;21575;51.538;-0.084;2022-08-19T07:43:40;1.70;;;0.40;;
35456;SDS011;21575;51.538;-0.084;2022-08-19T07:46:05;0.95;;;0.30;;
35456;SDS011;21575;51.538;-0.084;2022-08-19T07:48:31;1.30;;;0.60;;
35456;SDS011;21575;51.538;-0.084;2022-08-19T07:50:58;1.67;;;0.63;;
35456;SDS011;21575;51.538;-0.084;2022-08-19T07:53:28;0.57;;;0.52;;
35456;SDS011;21575;51.538;-0.084;2022-08-19T07:55:55;1.23;;;0.40;;
35456;SDS011;21575;51.538;-0.084;2022-08-19T07:58:25;2.00;;;0.60;;
35456;SDS011;21575;51.538;-0.084;2022-08-19T08:00:50;1.10;;;0.60;;
35456;SDS011;21575;51.538;-0.084;2022-08-19T08:03:17;0.68;;;0.45;;
35456;SDS011;21575;51.538;-0.084;2022-08-19T08:05:45;2.15;;;0.40;;
35456;SDS011;21575;51.538;-0.084;2022-08-19T08:08:30;1.45;;;0.30;;
35456;SDS011;21575;51.538;-0.084;2022-08-19T08:11:17;2.20;;;0.50;;
35456;SDS011;21575;51.538;-0.084;2022-08-19T08:13:44;0.68;;;0.47;;
35456;SDS011;21575;51.538;-0.084;2022-08-19T08:16:10;3.40;;;0.60;;
35456;SDS011;21575;51.538;-0.084;2022-08-19T08:18:36;3.58;;;0.50;;
35456;SDS011;21575;51.538;-0.084;2022-08-19T08:21:06;3.17;;;0.60;;
35456;SDS011;21575;51.538;-0.084;2022-08-19T08:23:32;1.90;;;0.60;;
35456;SDS011;21575;51.538;-0.084;2022-08-19T08:25:58;2.95;;;0.60;;
35456;SDS011;21575;51.538;-0.084;2022-08-19T08:28:24;1.90;;;0.47;;
35456;SDS011;21575;51.538;-0.084;2022-08-19T08:30:52;1.58;;;0.50;;
35456;SDS011;21575;51.538;-0.084;2022-08-19T08:33:19;1.75;;;0.50;;
35456;SDS011;21575;51.538;-0.084;2022-08-19T08:35:46;1.58;;;0.50;;
35456;SDS011;21575;51.538;-0.084;2022-08-19T08:38:12;1.85;;;0.30;;
35456;SDS011;21575;51.538;-0.084;2022-08-19T08:40:42;1.65;;;0.50;;
35456;SDS011;21575;51.538;-0.084;2022-08-19T08:43:27;1.30;;;0.40;;
35456;SDS011;21575;51.538;-0.084;2022-08-19T08:48:32;1.20;;;0.43;;
35456;SDS011;21575;51.538;-0.084;2022-08-19T08:51:02;2.40;;;0.73;;
35456;SDS011;21575;51.538;-0.084;2022-08-19T08:53:32;1.95;;;0.52;;
35456;SDS011;21575;51.538;-0.084;2022-08-19T08:56:01;2.47;;;0.82;;
35456;SDS011;21575;51.538;-0.084;2022-08-19T08:59:21;2.10;;;0.90;;
35456;SDS011;21575;51.538;-0.084;2022-08-19T09:01:19;1.58;;;0.90;;
35456;SDS011;21575;51.538;-0.084;2022-08-19T09:03:45;1.98;;;0.75;;
35456;SDS011;21575;51.538;-0.084;2022-08-19T09:06:12;3.45;;;0.90;;
35456;SDS011;21575;51.538;-0.084;2022-08-19T09:11:24;2.63;;;0.80;;
35456;SDS011;21575;51.538;-0.084;2022-08-19T09:16:44;2.83;;;0.70;;
35456;SDS011;21575;51.538;-0.084;2022-08-19T09:19:10;2.42;;;0.82;;
35456;SDS011;21575;51.538;-0.084;2022-08-19T09:21:36;3.92;;;0.80;;
35456;SDS011;21575;51.538;-0.084;2022-08-19T09:24:03;1.50;;;0.88;;
35456;SDS011;21575;51.538;-0.084;2022-08-19T09:26:30;1.98;;;0.70;;
35456;SDS011;21575;51.538;-0.084;2022-08-19T09:28:57;2.72;;;0.70;;
35456;SDS011;21575;51.538;-0.084;2022-08-19T09:31:25;4.57;;;1.33;;
35456;SDS011;21575;51.538;-0.084;2022-08-19T09:33:53;2.00;;;0.90;;
35456;SDS011;21575;51.538;-0.084;2022-08-19T09:36:22;1.38;;;0.60;;
35456;SDS011;21575;51.538;-0.084;2022-08-19T09:38:51;2.53;;;1.05;;
35456;SDS011;21575;51.538;-0.084;2022-08-19T09:41:18;1.35;;;0.45;;
35456;SDS011;21575;51.538;-0.084;2022-08-19T09:43:46;0.75;;;0.60;;
35456;SDS011;21575;51.538;-0.084;2022-08-19T09:46:17;2.95;;;0.60;;
35456;SDS011;21575;51.538;-0.084;2022-08-19T09:48:46;4.97;;;1.17;;
35456;SDS011;21575;51.538;-0.084;2022-08-19T09:51:14;2.78;;;1.10;;
35456;SDS011;21575;51.538;-0.084;2022-08-19T09:53:42;3.47;;;1.00;;
35456;SDS011;21575;51.538;-0.084;2022-08-19T09:56:09;1.42;;;0.70;;
35456;SDS011;21575;51.538;-0.084;2022-08-19T09:58:35;3.38;;;1.08;;
35456;SDS011;21575;51.538;-0.084;2022-08-19T10:01:02;1.95;;;1.27;;
35456;SDS011;21575;51.538;-0.084;2022-08-19T10:03:30;2.22;;;0.93;;
35456;SDS011;21575;51.538;-0.084;2022-08-19T10:05:57;3.17;;;0.98;;
35456;SDS011;21575;51.538;-0.084;2022-08-19T10:08:26;3.15;;;0.82;;
35456;SDS011;21575;51.538;-0.084;2022-08-19T10:10:54;4.07;;;1.27;;
35456;SDS011;21575;51.538;-0.084;2022-08-19T10:13:22;2.75;;;1.30;;
35456;SDS011;21575;51.538;-0.084;2022-08-19T10:15:55;5.07;;;1.75;;
35456;SDS011;21575;51.538;-0.084;2022-08-19T10:18:26;5.75;;;1.45;;
35456;SDS011;21575;51.538;-0.084;2022-08-19T10:20:52;5.20;;;1.00;;
35456;SDS011;21575;51.538;-0.084;2022-08-19T10:23:27;4.68;;;1.20;;
35456;SDS011;21575;51.538;-0.084;2022-08-19T10:25:58;1.90;;;1.00;;
35456;SDS011;21575;51.538;-0.084;2022-08-19T10:28:25;3.72;;;1.30;;
35456;SDS011;21575;51.538;-0.084;2022-08-19T10:30:50;4.65;;;1.33;;
35456;SDS011;21575;51.538;-0.084;2022-08-19T10:33:16;3.28;;;1.75;;
35456;SDS011;21575;51.538;-0.084;2022-08-19T10:35:42;6.32;;;1.52;;
35456;SDS011;21575;51.538;-0.084;2022-08-19T10:38:07;2.92;;;1.73;;
35456;SDS011;21575;51.538;-0.084;2022-08-19T10:40:33;4.03;;;1.27;;
35456;SDS011;21575;51.538;-0.084;2022-08-19T10:42:59;5.55;;;1.70;;
35456;SDS011;21575;51.538;-0.084;2022-08-19T10:45:25;3.42;;;1.67;;
35456;SDS011;21575;51.538;-0.084;2022-08-19T10:47:54;4.28;;;1.50;;
35456;SDS011;21575;51.538;-0.084;2022-08-19T10:50:20;3.65;;;1.33;;
35456;SDS011;21575;51.538;-0.084;2022-08-19T10:53:05;3.10;;;1.65;;
35456;SDS011;21575;51.538;-0.084;2022-08-19T10:55:35;3.47;;;1.20;;
35456;SDS011;21575;51.538;-0.084;2022-08-19T10:58:21;4.40;;;2.42;;
35456;SDS011;21575;51.538;-0.084;2022-08-19T11:00:54;3.85;;;1.88;;
35456;SDS011;21575;51.538;-0.084;2022-08-19T11:03:21;4.82;;;1.80;;
35456;SDS011;21575;51.538;-0.084;2022-08-19T11:06:02;2.50;;;1.63;;
35456;SDS011;21575;51.538;-0.084;2022-08-19T11:08:29;6.00;;;2.33;;
35456;SDS011;21575;51.538;-0.084;2022-08-19T11:10:57;5.57;;;1.63;;
35456;SDS011;21575;51.538;-0.084;2022-08-19T11:13:25;4.90;;;1.63;;
35456;SDS011;21575;51.538;-0.084;2022-08-19T11:15:56;2.92;;;1.40;;
35456;SDS011;21575;51.538;-0.084;2022-08-19T11:18:26;2.95;;;1.60;;
35456;SDS011;21575;51.538;-0.084;2022-08-19T11:20:52;3.83;;;1.90;;
35456;SDS011;21575;51.538;-0.084;2022-08-19T11:23:18;5.47;;;1.45;;
35456;SDS011;21575;51.538;-0.084;2022-08-19T11:25:43;3.50;;;1.50;;
35456;SDS011;21575;51.538;-0.084;2022-08-19T11:28:10;2.55;;;1.55;;
35456;SDS011;21575;51.538;-0.084;2022-08-19T11:30:37;3.13;;;1.20;;
35456;SDS011;21575;51.538;-0.084;2022-08-19T11:33:03;4.00;;;1.88;;
35456;SDS011;21575;51.538;-0.084;2022-08-19T11:35:29;3.88;;;1.40;;
35456;SDS011;21575;51.538;-0.084;2022-08-19T11:37:55;2.42;;;1.17;;
35456;SDS011;21575;51.538;-0.084;2022-08-19T11:40:26;4.20;;;1.38;;
35456;SDS011;21575;51.538;-0.084;2022-08-19T11:42:52;3.50;;;1.80;;
35456;SDS011;21575;51.538;-0.084;2022-08-19T11:45:20;5.13;;;1.58;;
35456;SDS011;21575;51.538;-0.084;2022-08-19T11:47:47;2.95;;;1.40;;
35456;SDS011;21575;51.538;-0.084;2022-08-19T11:50:13;5.10;;;1.60;;
35456;SDS011;21575;51.538;-0.084;2022-08-19T11:52:40;1.80;;;1.23;;
35456;SDS011;21575;51.538;-0.084;2022-08-19T11:55:05;3.47;;;0.98;;
35456;SDS011;21575;51.538;-0.084;2022-08-19T11:57:32;3.25;;;1.85;;
35456;SDS011;21575;51.538;-0.084;2022-08-19T11:59:57;3.63;;;1.13;;
35456;SDS011;21575;51.538;-0.084;2022-08-19T12:02:23;4.80;;;1.38;;
35456;SDS011;21575;51.538;-0.084;2022-08-19T12:04:49;5.55;;;1.60;;
35456;SDS011;21575;51.538;-0.084;2022-08-19T12:07:15;3.20;;;1.42;;
35456;SDS011;21575;51.538;-0.084;2022-08-19T12:09:40;4.65;;;1.85;;
35456;SDS011;21575;51.538;-0.084;2022-08-19T12:12:06;5.97;;;2.00;;
35456;SDS011;21575;51.538;-0.084;2022-08-19T12:14:32;4.35;;;1.60;;
35456;SDS011;21575;51.538;-0.084;2022-08-19T12:16:59;4.45;;;1.83;;
35456;SDS011;21575;51.538;-0.084;2022-08-19T12:19:25;3.15;;;1.63;;
35456;SDS011;21575;51.538;-0.084;2022-08-19T12:21:51;5.07;;;1.65;;
35456;SDS011;21575;51.538;-0.084;2022-08-19T12:24:20;4.10;;;1.27;;
35456;SDS011;21575;51.538;-0.084;2022-08-19T12:26:48;4.05;;;1.80;;
35456;SDS011;21575;51.538;-0.084;2022-08-19T12:29:14;6.40;;;1.67;;
35456;SDS011;21575;51.538;-0.084;2022-08-19T12:31:40;5.25;;;1.45;;
35456;SDS011;21575;51.538;-0.084;2022-08-19T12:34:06;5.55;;;1.75;;
35456;SDS011;21575;51.538;-0.084;2022-08-19T12:36:32;6.32;;;1.70;;
35456;SDS011;21575;51.538;-0.084;2022-08-19T12:38:59;5.95;;;1.92;;
35456;SDS011;21575;51.538;-0.084;2022-08-19T12:41:25;4.43;;;1.52;;
35456;SDS011;21575;51.538;-0.084;2022-08-19T12:43:50;4.38;;;1.60;;
35456;SDS011;21575;51.538;-0.084;2022-08-19T12:46:17;4.20;;;2.30;;
35456;SDS011;21575;51.538;-0.084;2022-08-19T12:48:44;5.55;;;1.50;;
35456;SDS011;21575;51.538;-0.084;2022-08-19T12:51:10;3.38;;;1.65;;
35456;SDS011;21575;51.538;-0.084;2022-08-19T12:53:38;4.95;;;1.58;;
35456;SDS011;21575;51.538;-0.084;2022-08-19T12:56:04;4.45;;;1.30;;
35456;SDS011;21575;51.538;-0.084;2022-08-19T12:58:31;5.03;;;1.88;;
35456;SDS011;21575;51.538;-0.084;2022-08-19T13:00:59;5.55;;;1.70;;
35456;SDS011;21575;51.538;-0.084;2022-08-19T13:03:30;3.80;;;1.40;;
35456;SDS011;21575;51.538;-0.084;2022-08-19T13:05:56;6.25;;;1.70;;
35456;SDS011;21575;51.538;-0.084;2022-08-19T13:08:22;3.45;;;1.55;;
35456;SDS011;21575;51.538;-0.084;2022-08-19T13:10:47;5.32;;;1.92;;
35456;SDS011;21575;51.538;-0.084;2022-08-19T13:13:13;3.53;;;1.60;;
35456;SDS011;21575;51.538;-0.084;2022-08-19T13:15:40;4.15;;;1.33;;
35456;SDS011;21575;51.538;-0.084;2022-08-19T13:18:07;4.18;;;1.40;;
35456;SDS011;21575;51.538;-0.084;2022-08-19T13:20:34;3.15;;;1.50;;
35456;SDS011;21575;51.538;-0.084;2022-08-19T13:23:01;7.13;;;1.73;;
35456;SDS011;21575;51.538;-0.084;2022-08-19T13:25:26;6.13;;;1.52;;
35456;SDS011;21575;51.538;-0.084;2022-08-19T13:27:52;4.20;;;1.45;;
35456;SDS011;21575;51.538;-0.084;2022-08-19T13:30:20;4.05;;;1.63;;
35456;SDS011;21575;51.538;-0.084;2022-08-19T13:33:04;5.70;;;2.22;;
35456;SDS011;21575;51.538;-0.084;2022-08-19T13:35:46;5.35;;;1.85;;
35456;SDS011;21575;51.538;-0.084;2022-08-19T13:38:15;5.35;;;1.80;;
35456;SDS011;21575;51.538;-0.084;2022-08-19T13:40:43;5.00;;;1.73;;
35456;SDS011;21575;51.538;-0.084;2022-08-19T13:43:09;3.47;;;1.55;;
35456;SDS011;21575;51.538;-0.084;2022-08-19T13:45:35;4.90;;;1.65;;
35456;SDS011;21575;51.538;-0.084;2022-08-19T13:48:03;5.28;;;1.73;;
35456;SDS011;21575;51.538;-0.084;2022-08-19T13:50:34;4.10;;;1.48;;
35456;SDS011;21575;51.538;-0.084;2022-08-19T13:53:06;5.40;;;1.52;;
35456;SDS011;21575;51.538;-0.084;2022-08-19T13:55:33;4.38;;;1.33;;
35456;SDS011;21575;51.538;-0.084;2022-08-19T13:57:59;5.72;;;1.77;;
35456;SDS011;21575;51.538;-0.084;2022-08-19T14:00:31;6.15;;;1.42;;
35456;SDS011;21575;51.538;-0.084;2022-08-19T14:02:59;6.50;;;1.40;;
35456;SDS011;21575;51.538;-0.084;2022-08-19T14:05:25;5.05;;;1.48;;
35456;SDS011;21575;51.538;-0.084;2022-08-19T14:07:52;7.15;;;1.50;;
35456;SDS011;21575;51.538;-0.084;2022-08-19T14:10:18;5.40;;;1.50;;
35456;SDS011;21575;51.538;-0.084;2022-08-19T14:12:45;8.68;;;2.03;;
35456;SDS011;21575;51.538;-0.084;2022-08-19T14:15:11;5.22;;;1.42;;
35456;SDS011;21575;51.538;-0.084;2022-08-19T14:17:39;6.35;;;1.45;;
35456;SDS011;21575;51.538;-0.084;2022-08-19T14:20:07;6.35;;;1.70;;
35456;SDS011;21575;51.538;-0.084;2022-08-19T14:22:35;4.20;;;1.10;;
35456;SDS011;21575;51.538;-0.084;2022-08-19T14:25:03;4.57;;;1.35;;
35456;SDS011;21575;51.538;-0.084;2022-08-19T14:27:32;4.10;;;1.30;;
35456;SDS011;21575;51.538;-0.084;2022-08-19T14:30:03;5.90;;;1.60;;
35456;SDS011;21575;51.538;-0.084;2022-08-19T14:32:29;4.63;;;1.48;;
35456;SDS011;21575;51.538;-0.084;2022-08-19T14:34:55;4.13;;;1.75;;
35456;SDS011;21575;51.538;-0.084;2022-08-19T14:37:21;4.95;;;1.05;;
35456;SDS011;21575;51.538;-0.084;2022-08-19T14:39:47;5.22;;;1.75;;
35456;SDS011;21575;51.538;-0.084;2022-08-19T14:42:13;6.55;;;1.85;;
35456;SDS011;21575;51.538;-0.084;2022-08-19T14:44:40;4.75;;;1.60;;
35456;SDS011;21575;51.538;-0.084;2022-08-19T14:47:06;3.83;;;1.27;;
35456;SDS011;21575;51.538;-0.084;2022-08-19T14:49:32;7.00;;;1.10;;
35456;SDS011;21575;51.538;-0.084;2022-08-19T14:51:58;3.42;;;1.70;;
35456;SDS011;21575;51.538;-0.084;2022-08-19T14:54:24;3.13;;;1.48;;